KAL23 VCBI-WMKK
Flight info
| Callsign | KAL23 |
|---|---|
| Flight time | N/A |
| Altitude | 39000 |
| Route | DUDA1D/22 DUDAL1D VEVET P570 MABIX P756 ISVUR R461 PUGER PUGER1H |
| Aircraft | A342/H-SDE2E3FGHIJ4J5M1RWXY/LB1D1 |
Departure
| Time | N/A |
|---|---|
| Airport | Bandaranaike International Colombo Airport (VCBI) |
Arrival
| Time | 2026-05-05 11:47 |
|---|---|
| Airport | Kuala Lumpur International Airport (WMKK) |
| Time | Latitude | Longitude | Altitude | Speed | Heading |
|---|---|---|---|---|---|
| 2026-05-05 08:39 | 6.94712 | 80.38986 | 19991 ft | 435 kts | 105° |
| 2026-05-05 08:39 | 6.93981 | 80.41937 | 20579 ft | 438 kts | 105° |
| 2026-05-05 08:39 | 6.93238 | 80.44939 | 21162 ft | 441 kts | 105° |
| 2026-05-05 08:40 | 6.92492 | 80.47954 | 21717 ft | 445 kts | 104° |
| 2026-05-05 08:40 | 6.91750 | 80.50951 | 22240 ft | 448 kts | 104° |
| 2026-05-05 08:40 | 6.90986 | 80.54041 | 22804 ft | 451 kts | 104° |
| 2026-05-05 08:40 | 6.90228 | 80.57106 | 23349 ft | 454 kts | 104° |
| 2026-05-05 08:41 | 6.89450 | 80.60223 | 23889 ft | 457 kts | 104° |
| 2026-05-05 08:41 | 6.88660 | 80.63348 | 24417 ft | 461 kts | 104° |
| 2026-05-05 08:41 | 6.87871 | 80.66480 | 24987 ft | 463 kts | 104° |
| 2026-05-05 08:41 | 6.87089 | 80.69618 | 25502 ft | 466 kts | 103° |
| 2026-05-05 08:42 | 6.86309 | 80.72768 | 25983 ft | 470 kts | 103° |
| 2026-05-05 08:42 | 6.85509 | 80.76002 | 26485 ft | 473 kts | 103° |
| 2026-05-05 08:42 | 6.84717 | 80.79198 | 26934 ft | 477 kts | 103° |
| 2026-05-05 08:42 | 6.83907 | 80.82460 | 27371 ft | 481 kts | 103° |
| 2026-05-05 08:43 | 6.83092 | 80.85735 | 27808 ft | 485 kts | 103° |
| 2026-05-05 08:43 | 6.82263 | 80.89068 | 28240 ft | 489 kts | 103° |
| 2026-05-05 08:43 | 6.81436 | 80.92387 | 28665 ft | 492 kts | 103° |
| 2026-05-05 08:43 | 6.80601 | 80.95740 | 29151 ft | 494 kts | 103° |
| 2026-05-05 08:44 | 6.79763 | 80.99110 | 29858 ft | 491 kts | 103° |
| 2026-05-05 08:44 | 6.78943 | 81.02412 | 30628 ft | 487 kts | 102° |
| 2026-05-05 08:44 | 6.78127 | 81.05699 | 31365 ft | 483 kts | 102° |
| 2026-05-05 08:44 | 6.77313 | 81.08984 | 32090 ft | 479 kts | 102° |
| 2026-05-05 08:45 | 6.76626 | 81.12211 | 32828 ft | 475 kts | 99° |
| 2026-05-05 08:45 | 6.76100 | 81.15490 | 33638 ft | 471 kts | 96° |
| 2026-05-05 08:45 | 6.75751 | 81.18739 | 34479 ft | 466 kts | 94° |
| 2026-05-05 08:45 | 6.75569 | 81.22024 | 35350 ft | 461 kts | 91° |
| 2026-05-05 08:46 | 6.75515 | 81.25191 | 36122 ft | 457 kts | 90° |
| 2026-05-05 08:46 | 6.75477 | 81.28424 | 36811 ft | 454 kts | 90° |
| 2026-05-05 08:46 | 6.75443 | 81.31576 | 37405 ft | 452 kts | 90° |
| 2026-05-05 08:46 | 6.75405 | 81.34776 | 37856 ft | 453 kts | 90° |
| 2026-05-05 08:47 | 6.75365 | 81.37956 | 38210 ft | 454 kts | 91° |
| 2026-05-05 08:47 | 6.75323 | 81.41161 | 38576 ft | 456 kts | 91° |
| 2026-05-05 08:47 | 6.75267 | 81.44357 | 38824 ft | 458 kts | 92° |
| 2026-05-05 08:48 | 6.74739 | 81.50716 | 38826 ft | 458 kts | 98° |
| 2026-05-05 08:48 | 6.73572 | 81.57051 | 38818 ft | 457 kts | 103° |
| 2026-05-05 08:49 | 6.72027 | 81.63258 | 38820 ft | 457 kts | 103° |
| 2026-05-05 08:49 | 6.70473 | 81.69476 | 38820 ft | 456 kts | 104° |
| 2026-05-05 08:50 | 6.68924 | 81.75682 | 38815 ft | 456 kts | 104° |
| 2026-05-05 08:50 | 6.67372 | 81.81883 | 38810 ft | 457 kts | 104° |
| 2026-05-05 08:51 | 6.65819 | 81.88079 | 38807 ft | 457 kts | 104° |
| 2026-05-05 08:51 | 6.64258 | 81.94293 | 38803 ft | 456 kts | 104° |
| 2026-05-05 08:52 | 6.62707 | 82.00470 | 38797 ft | 456 kts | 104° |
| 2026-05-05 08:52 | 6.61148 | 82.06655 | 38790 ft | 455 kts | 104° |
| 2026-05-05 08:53 | 6.59582 | 82.12863 | 38789 ft | 456 kts | 104° |
| 2026-05-05 08:53 | 6.58019 | 82.19052 | 38789 ft | 457 kts | 104° |
| 2026-05-05 08:54 | 6.56449 | 82.25275 | 38790 ft | 457 kts | 104° |
| 2026-05-05 08:54 | 6.54880 | 82.31483 | 38791 ft | 458 kts | 104° |
| 2026-05-05 08:55 | 6.53299 | 82.37736 | 38791 ft | 459 kts | 104° |
| 2026-05-05 08:55 | 6.51735 | 82.43923 | 38789 ft | 459 kts | 104° |
| 2026-05-05 08:56 | 6.50154 | 82.50170 | 38787 ft | 460 kts | 105° |
| 2026-05-05 08:56 | 6.48565 | 82.56448 | 38786 ft | 460 kts | 105° |
| 2026-05-05 08:57 | 6.46990 | 82.62669 | 38786 ft | 460 kts | 105° |
| 2026-05-05 08:57 | 6.45416 | 82.68897 | 38788 ft | 460 kts | 105° |
| 2026-05-05 08:58 | 6.43838 | 82.75144 | 38789 ft | 462 kts | 105° |
| 2026-05-05 08:58 | 6.42243 | 82.81448 | 38791 ft | 462 kts | 105° |
| 2026-05-05 08:59 | 6.40651 | 82.87723 | 38792 ft | 462 kts | 105° |
| 2026-05-05 08:59 | 6.39056 | 82.94001 | 38793 ft | 462 kts | 105° |
| 2026-05-05 09:00 | 6.37457 | 83.00293 | 38793 ft | 463 kts | 105° |
| 2026-05-05 09:00 | 6.35867 | 83.06546 | 38790 ft | 464 kts | 105° |
| 2026-05-05 09:01 | 6.34257 | 83.12875 | 38785 ft | 465 kts | 105° |
| 2026-05-05 09:01 | 6.32658 | 83.19157 | 38782 ft | 465 kts | 105° |
| 2026-05-05 09:02 | 6.31054 | 83.25454 | 38780 ft | 465 kts | 105° |
| 2026-05-05 09:02 | 6.29448 | 83.31754 | 38785 ft | 466 kts | 105° |
| 2026-05-05 09:03 | 6.27846 | 83.38042 | 38794 ft | 466 kts | 105° |
| 2026-05-05 09:03 | 6.26227 | 83.44386 | 38799 ft | 467 kts | 105° |
| 2026-05-05 09:04 | 6.24616 | 83.50697 | 38799 ft | 468 kts | 105° |
| 2026-05-05 09:04 | 6.22987 | 83.57076 | 38800 ft | 469 kts | 105° |
| 2026-05-05 09:05 | 6.21098 | 83.64471 | 38801 ft | 469 kts | 105° |
| 2026-05-05 09:05 | 6.19752 | 83.69754 | 38799 ft | 469 kts | 105° |
| 2026-05-05 09:06 | 6.18138 | 83.76088 | 38798 ft | 469 kts | 105° |
| 2026-05-05 09:06 | 6.16515 | 83.82430 | 38795 ft | 469 kts | 105° |
| 2026-05-05 09:07 | 6.14881 | 83.88805 | 38788 ft | 469 kts | 105° |
| 2026-05-05 09:07 | 6.13247 | 83.95171 | 38780 ft | 469 kts | 105° |
| 2026-05-05 09:08 | 6.11628 | 84.01488 | 38779 ft | 470 kts | 105° |
| 2026-05-05 09:08 | 6.10000 | 84.07862 | 38782 ft | 471 kts | 105° |
| 2026-05-05 09:09 | 6.08365 | 84.14254 | 38781 ft | 471 kts | 105° |
| 2026-05-05 09:09 | 6.06723 | 84.20652 | 38781 ft | 472 kts | 105° |
| 2026-05-05 09:10 | 6.05078 | 84.27056 | 38781 ft | 472 kts | 105° |
| 2026-05-05 09:10 | 6.03441 | 84.33430 | 38785 ft | 472 kts | 105° |
| 2026-05-05 09:11 | 6.01796 | 84.39826 | 38781 ft | 472 kts | 105° |
| 2026-05-05 09:11 | 6.00153 | 84.46205 | 38790 ft | 473 kts | 105° |
| 2026-05-05 09:12 | 5.98504 | 84.52610 | 38789 ft | 474 kts | 105° |
| 2026-05-05 09:12 | 5.96846 | 84.59042 | 38793 ft | 475 kts | 105° |
| 2026-05-05 09:13 | 5.95184 | 84.65487 | 38801 ft | 475 kts | 106° |
| 2026-05-05 09:13 | 5.93528 | 84.71942 | 38801 ft | 477 kts | 106° |
| 2026-05-05 09:14 | 5.91872 | 84.78375 | 38803 ft | 477 kts | 106° |
| 2026-05-05 09:14 | 5.90216 | 84.84809 | 38801 ft | 477 kts | 106° |
| 2026-05-05 09:15 | 5.88518 | 84.91306 | 38801 ft | 479 kts | 107° |
| 2026-05-05 09:15 | 5.86823 | 84.97762 | 38804 ft | 480 kts | 106° |
| 2026-05-05 09:16 | 5.85125 | 85.04282 | 38801 ft | 481 kts | 106° |
| 2026-05-05 09:16 | 5.83439 | 85.10790 | 38801 ft | 481 kts | 106° |
| 2026-05-05 09:17 | 5.81758 | 85.17279 | 38801 ft | 480 kts | 106° |
| 2026-05-05 09:17 | 5.80068 | 85.23813 | 38796 ft | 481 kts | 106° |
| 2026-05-05 09:18 | 5.78389 | 85.30293 | 38789 ft | 483 kts | 106° |
| 2026-05-05 09:18 | 5.76691 | 85.36833 | 38785 ft | 483 kts | 106° |
| 2026-05-05 09:19 | 5.74988 | 85.43390 | 38781 ft | 484 kts | 106° |
| 2026-05-05 09:19 | 5.73298 | 85.49900 | 38781 ft | 485 kts | 105° |
| 2026-05-05 09:20 | 5.71590 | 85.56490 | 38780 ft | 486 kts | 106° |
| 2026-05-05 09:20 | 5.69875 | 85.63093 | 38783 ft | 487 kts | 106° |
| 2026-05-05 09:21 | 5.68177 | 85.69643 | 38785 ft | 487 kts | 106° |
| 2026-05-05 09:21 | 5.66463 | 85.76268 | 38786 ft | 488 kts | 106° |
| 2026-05-05 09:22 | 5.64762 | 85.82815 | 38785 ft | 488 kts | 106° |
| 2026-05-05 09:22 | 5.63048 | 85.89406 | 38792 ft | 489 kts | 105° |
| 2026-05-05 09:23 | 5.61324 | 85.96029 | 38797 ft | 488 kts | 105° |
| 2026-05-05 09:23 | 5.59612 | 86.02602 | 38799 ft | 489 kts | 105° |
| 2026-05-05 09:24 | 5.57891 | 86.09213 | 38797 ft | 490 kts | 105° |
| 2026-05-05 09:24 | 5.56156 | 86.15867 | 38797 ft | 490 kts | 105° |
| 2026-05-05 09:25 | 5.54432 | 86.22474 | 38795 ft | 490 kts | 105° |
| 2026-05-05 09:25 | 5.52930 | 86.29141 | 38801 ft | 490 kts | 105° |
| 2026-05-05 09:26 | 5.51103 | 86.35730 | 38795 ft | 490 kts | 106° |
| 2026-05-05 09:26 | 5.49284 | 86.42362 | 38793 ft | 490 kts | 105° |
| 2026-05-05 09:27 | 5.47531 | 86.48949 | 38792 ft | 490 kts | 105° |
| 2026-05-05 09:27 | 5.45798 | 86.55540 | 38793 ft | 489 kts | 105° |
| 2026-05-05 09:28 | 5.44064 | 86.62162 | 38798 ft | 490 kts | 105° |
| 2026-05-05 09:28 | 5.42332 | 86.68788 | 38800 ft | 489 kts | 105° |
| 2026-05-05 09:29 | 5.40617 | 86.75368 | 38800 ft | 490 kts | 104° |
| 2026-05-05 09:29 | 5.38890 | 86.81977 | 38801 ft | 490 kts | 105° |
| 2026-05-05 09:30 | 5.37153 | 86.88612 | 38801 ft | 489 kts | 105° |
| 2026-05-05 09:30 | 5.35421 | 86.95217 | 38801 ft | 489 kts | 105° |
| 2026-05-05 09:31 | 5.33682 | 87.01846 | 38801 ft | 489 kts | 104° |
| 2026-05-05 09:31 | 5.31954 | 87.08425 | 38794 ft | 489 kts | 104° |
| 2026-05-05 09:32 | 5.30225 | 87.15005 | 38784 ft | 489 kts | 104° |
| 2026-05-05 09:32 | 5.28488 | 87.21621 | 38781 ft | 490 kts | 104° |
| 2026-05-05 09:33 | 5.26754 | 87.28224 | 38780 ft | 490 kts | 104° |
| 2026-05-05 09:33 | 5.25014 | 87.34840 | 38780 ft | 490 kts | 104° |
| 2026-05-05 09:34 | 5.23267 | 87.41484 | 38780 ft | 490 kts | 104° |
| 2026-05-05 09:34 | 5.21537 | 87.48055 | 38780 ft | 490 kts | 104° |
| 2026-05-05 09:35 | 5.19795 | 87.54668 | 38780 ft | 491 kts | 104° |
| 2026-05-05 09:35 | 5.17178 | 87.64600 | 38781 ft | 490 kts | 104° |
| 2026-05-05 09:36 | 5.15440 | 87.71214 | 38780 ft | 489 kts | 103° |
| 2026-05-05 09:36 | 5.13716 | 87.77773 | 38780 ft | 489 kts | 103° |
| 2026-05-05 09:37 | 5.11968 | 87.84396 | 38780 ft | 489 kts | 103° |
| 2026-05-05 09:37 | 5.10229 | 87.90972 | 38780 ft | 489 kts | 103° |
| 2026-05-05 09:38 | 5.08496 | 87.97525 | 38780 ft | 488 kts | 103° |
| 2026-05-05 09:38 | 5.06724 | 88.04121 | 38777 ft | 488 kts | 104° |
| 2026-05-05 09:39 | 5.04899 | 88.10715 | 38778 ft | 488 kts | 104° |
| 2026-05-05 09:39 | 5.03091 | 88.17238 | 38779 ft | 487 kts | 104° |
| 2026-05-05 09:40 | 5.01281 | 88.23763 | 38780 ft | 487 kts | 104° |
| 2026-05-05 09:40 | 4.99456 | 88.30345 | 38790 ft | 487 kts | 104° |
| 2026-05-05 09:41 | 4.97646 | 88.36877 | 38799 ft | 487 kts | 104° |
| 2026-05-05 09:41 | 4.95840 | 88.43386 | 38795 ft | 487 kts | 104° |
| 2026-05-05 09:42 | 4.94016 | 88.49967 | 38798 ft | 486 kts | 104° |
| 2026-05-05 09:42 | 4.92206 | 88.56488 | 38798 ft | 486 kts | 104° |
| 2026-05-05 09:43 | 4.90406 | 88.62974 | 38798 ft | 486 kts | 104° |
| 2026-05-05 09:43 | 4.88571 | 88.69518 | 38798 ft | 486 kts | 104° |
| 2026-05-05 09:44 | 4.86740 | 88.76039 | 38800 ft | 485 kts | 104° |
| 2026-05-05 09:44 | 4.84928 | 88.82530 | 38797 ft | 485 kts | 104° |
| 2026-05-05 09:45 | 4.83114 | 88.89046 | 38792 ft | 485 kts | 104° |
| 2026-05-05 09:45 | 4.81300 | 88.95567 | 38782 ft | 485 kts | 104° |
| 2026-05-05 09:46 | 4.79495 | 89.02053 | 38782 ft | 484 kts | 104° |
| 2026-05-05 09:46 | 4.77685 | 89.08551 | 38780 ft | 484 kts | 104° |
| 2026-05-05 09:47 | 4.75872 | 89.15060 | 38782 ft | 484 kts | 104° |
| 2026-05-05 09:47 | 4.74068 | 89.21539 | 38782 ft | 483 kts | 104° |
| 2026-05-05 09:48 | 4.72256 | 89.28036 | 38781 ft | 483 kts | 104° |
| 2026-05-05 09:48 | 4.70450 | 89.34511 | 38780 ft | 483 kts | 104° |
| 2026-05-05 09:49 | 4.68639 | 89.41005 | 38781 ft | 483 kts | 104° |
| 2026-05-05 09:49 | 4.66840 | 89.47450 | 38781 ft | 483 kts | 104° |
| 2026-05-05 09:50 | 4.65029 | 89.53939 | 38782 ft | 482 kts | 104° |
| 2026-05-05 09:50 | 4.63226 | 89.60394 | 38780 ft | 482 kts | 104° |
| 2026-05-05 09:51 | 4.61422 | 89.66856 | 38783 ft | 482 kts | 104° |
| 2026-05-05 09:51 | 4.59615 | 89.73351 | 38783 ft | 482 kts | 104° |
| 2026-05-05 09:52 | 4.57817 | 89.79796 | 38786 ft | 481 kts | 104° |
| 2026-05-05 09:52 | 4.56009 | 89.86266 | 38787 ft | 481 kts | 104° |
| 2026-05-05 09:53 | 4.54204 | 89.92718 | 38791 ft | 480 kts | 104° |
| 2026-05-05 09:53 | 4.52409 | 89.99131 | 38794 ft | 480 kts | 104° |
| 2026-05-05 09:54 | 4.50607 | 90.05564 | 38799 ft | 480 kts | 104° |
| 2026-05-05 09:54 | 4.48791 | 90.12044 | 38798 ft | 480 kts | 104° |
| 2026-05-05 09:55 | 4.46998 | 90.18443 | 38800 ft | 480 kts | 104° |
| 2026-05-05 09:55 | 4.45187 | 90.24903 | 38800 ft | 480 kts | 104° |
| 2026-05-05 09:56 | 4.43392 | 90.31302 | 38801 ft | 479 kts | 104° |
| 2026-05-05 09:56 | 4.41589 | 90.37723 | 38799 ft | 479 kts | 104° |
| 2026-05-05 09:57 | 4.39867 | 90.44185 | 38799 ft | 478 kts | 102° |
| 2026-05-05 09:57 | 4.38279 | 90.50629 | 38790 ft | 478 kts | 102° |
| 2026-05-05 09:58 | 4.36678 | 90.57104 | 38784 ft | 478 kts | 102° |
| 2026-05-05 09:58 | 4.35077 | 90.63538 | 38779 ft | 478 kts | 102° |
| 2026-05-05 09:59 | 4.33468 | 90.69996 | 38782 ft | 478 kts | 102° |
| 2026-05-05 09:59 | 4.31856 | 90.76464 | 38780 ft | 477 kts | 103° |
| 2026-05-05 10:00 | 4.30234 | 90.82954 | 38782 ft | 477 kts | 102° |
| 2026-05-05 10:00 | 4.28624 | 90.89383 | 38779 ft | 477 kts | 103° |
| 2026-05-05 10:01 | 4.27009 | 90.95825 | 38776 ft | 476 kts | 103° |
| 2026-05-05 10:01 | 4.25390 | 91.02284 | 38779 ft | 476 kts | 103° |
| 2026-05-05 10:02 | 4.23773 | 91.08732 | 38780 ft | 475 kts | 102° |
| 2026-05-05 10:02 | 4.22166 | 91.15141 | 38783 ft | 476 kts | 102° |
| 2026-05-05 10:03 | 4.20547 | 91.21598 | 38782 ft | 476 kts | 103° |
| 2026-05-05 10:03 | 4.18936 | 91.28014 | 38781 ft | 476 kts | 103° |
| 2026-05-05 10:04 | 4.17319 | 91.34449 | 38781 ft | 475 kts | 103° |
| 2026-05-05 10:04 | 4.15704 | 91.40874 | 38783 ft | 475 kts | 103° |
| 2026-05-05 10:05 | 4.14091 | 91.47293 | 38783 ft | 475 kts | 103° |
| 2026-05-05 10:05 | 4.12476 | 91.53716 | 38784 ft | 475 kts | 103° |
| 2026-05-05 10:06 | 4.10862 | 91.60133 | 38780 ft | 476 kts | 103° |
| 2026-05-05 10:06 | 4.09244 | 91.66570 | 38790 ft | 475 kts | 103° |
| 2026-05-05 10:07 | 4.07636 | 91.72982 | 38792 ft | 475 kts | 103° |
| 2026-05-05 10:07 | 4.06021 | 91.79408 | 38799 ft | 475 kts | 103° |
| 2026-05-05 10:08 | 4.04404 | 91.85805 | 38804 ft | 475 kts | 103° |
| 2026-05-05 10:08 | 4.02770 | 91.92263 | 38803 ft | 476 kts | 103° |
| 2026-05-05 10:09 | 4.01156 | 91.98656 | 38800 ft | 476 kts | 103° |
| 2026-05-05 10:09 | 3.99509 | 92.05122 | 38789 ft | 475 kts | 103° |
| 2026-05-05 10:10 | 3.97854 | 92.11533 | 38782 ft | 475 kts | 103° |
| 2026-05-05 10:10 | 3.96195 | 92.17938 | 38782 ft | 474 kts | 103° |
| 2026-05-05 10:11 | 3.94534 | 92.24349 | 38781 ft | 473 kts | 103° |
| 2026-05-05 10:11 | 3.92887 | 92.30710 | 38781 ft | 474 kts | 103° |
| 2026-05-05 10:12 | 3.91231 | 92.37102 | 38781 ft | 474 kts | 103° |
| 2026-05-05 10:12 | 3.89570 | 92.43507 | 38780 ft | 474 kts | 103° |
| 2026-05-05 10:13 | 3.87878 | 92.49911 | 38781 ft | 474 kts | 103° |
| 2026-05-05 10:13 | 3.86215 | 92.56254 | 38781 ft | 473 kts | 103° |
| 2026-05-05 10:14 | 3.84547 | 92.62658 | 38781 ft | 472 kts | 103° |
| 2026-05-05 10:14 | 3.82888 | 92.69055 | 38781 ft | 472 kts | 103° |
| 2026-05-05 10:15 | 3.81246 | 92.75404 | 38781 ft | 472 kts | 103° |
| 2026-05-05 10:15 | 3.79590 | 92.81795 | 38781 ft | 472 kts | 103° |
| 2026-05-05 10:16 | 3.77940 | 92.88150 | 38780 ft | 472 kts | 103° |
| 2026-05-05 10:16 | 3.76293 | 92.94489 | 38780 ft | 472 kts | 103° |
| 2026-05-05 10:17 | 3.74638 | 93.00863 | 38781 ft | 472 kts | 103° |
| 2026-05-05 10:17 | 3.72978 | 93.07251 | 38781 ft | 471 kts | 103° |
| 2026-05-05 10:18 | 3.71332 | 93.13577 | 38780 ft | 471 kts | 103° |
| 2026-05-05 10:18 | 3.69687 | 93.19903 | 38780 ft | 472 kts | 103° |
| 2026-05-05 10:19 | 3.68027 | 93.26283 | 38780 ft | 472 kts | 103° |
| 2026-05-05 10:19 | 3.66096 | 93.33697 | 38780 ft | 472 kts | 103° |
| 2026-05-05 10:20 | 3.64714 | 93.39006 | 38780 ft | 472 kts | 103° |
| 2026-05-05 10:20 | 3.63057 | 93.45367 | 38780 ft | 472 kts | 103° |
| 2026-05-05 10:21 | 3.61407 | 93.51702 | 38784 ft | 471 kts | 103° |
| 2026-05-05 10:21 | 3.59752 | 93.58054 | 38792 ft | 472 kts | 103° |
| 2026-05-05 10:22 | 3.58087 | 93.64439 | 38797 ft | 472 kts | 103° |
| 2026-05-05 10:22 | 3.56441 | 93.70770 | 38800 ft | 470 kts | 103° |
| 2026-05-05 10:23 | 3.54787 | 93.77134 | 38799 ft | 470 kts | 103° |
| 2026-05-05 10:23 | 3.53133 | 93.83479 | 38795 ft | 470 kts | 103° |
| 2026-05-05 10:24 | 3.51482 | 93.89810 | 38790 ft | 470 kts | 103° |
| 2026-05-05 10:24 | 3.49831 | 93.96135 | 38784 ft | 469 kts | 103° |
| 2026-05-05 10:25 | 3.48183 | 94.02442 | 38781 ft | 469 kts | 103° |
| 2026-05-05 10:25 | 3.46533 | 94.08755 | 38780 ft | 469 kts | 103° |
| 2026-05-05 10:26 | 3.44880 | 94.15083 | 38780 ft | 470 kts | 103° |
| 2026-05-05 10:26 | 3.43224 | 94.21416 | 38780 ft | 470 kts | 103° |
| 2026-05-05 10:27 | 3.41563 | 94.27771 | 38780 ft | 470 kts | 103° |
| 2026-05-05 10:27 | 3.39907 | 94.34106 | 38780 ft | 470 kts | 103° |
| 2026-05-05 10:28 | 3.38251 | 94.40433 | 38780 ft | 469 kts | 103° |
| 2026-05-05 10:28 | 3.36591 | 94.46768 | 38780 ft | 469 kts | 103° |
| 2026-05-05 10:29 | 3.34933 | 94.53101 | 38780 ft | 469 kts | 103° |
| 2026-05-05 10:29 | 3.33276 | 94.59427 | 38780 ft | 469 kts | 103° |
| 2026-05-05 10:30 | 3.31627 | 94.65717 | 38781 ft | 469 kts | 103° |
| 2026-05-05 10:30 | 3.29973 | 94.72047 | 38780 ft | 469 kts | 103° |
| 2026-05-05 10:31 | 3.28420 | 94.78447 | 38779 ft | 467 kts | 99° |
| 2026-05-05 10:31 | 3.27472 | 94.84891 | 38780 ft | 466 kts | 94° |
| 2026-05-05 10:32 | 3.27174 | 94.91367 | 38781 ft | 465 kts | 88° |
| 2026-05-05 10:32 | 3.27467 | 94.97815 | 38781 ft | 464 kts | 85° |
| 2026-05-05 10:33 | 3.27886 | 95.04273 | 38786 ft | 464 kts | 85° |
| 2026-05-05 10:33 | 3.28306 | 95.10766 | 38794 ft | 464 kts | 85° |
| 2026-05-05 10:34 | 3.28721 | 95.17210 | 38798 ft | 465 kts | 85° |
| 2026-05-05 10:34 | 3.29134 | 95.23653 | 38800 ft | 464 kts | 85° |
| 2026-05-05 10:35 | 3.29552 | 95.30177 | 38795 ft | 464 kts | 85° |
| 2026-05-05 10:35 | 3.29964 | 95.36623 | 38800 ft | 465 kts | 85° |
| 2026-05-05 10:36 | 3.30376 | 95.43066 | 38799 ft | 465 kts | 85° |
| 2026-05-05 10:36 | 3.30785 | 95.49500 | 38795 ft | 465 kts | 85° |
| 2026-05-05 10:37 | 3.31200 | 95.56004 | 38790 ft | 465 kts | 85° |
| 2026-05-05 10:37 | 3.31613 | 95.62485 | 38783 ft | 464 kts | 85° |
| 2026-05-05 10:38 | 3.32021 | 95.68912 | 38781 ft | 464 kts | 85° |
| 2026-05-05 10:38 | 3.32429 | 95.75377 | 38780 ft | 464 kts | 85° |
| 2026-05-05 10:39 | 3.32841 | 95.81893 | 38780 ft | 465 kts | 85° |
| 2026-05-05 10:39 | 3.33251 | 95.88354 | 38780 ft | 465 kts | 85° |
| 2026-05-05 10:40 | 3.33730 | 95.95931 | 38780 ft | 466 kts | 85° |
| 2026-05-05 10:40 | 3.34081 | 96.01508 | 38784 ft | 465 kts | 85° |
| 2026-05-05 10:41 | 3.34421 | 96.06886 | 38781 ft | 465 kts | 85° |
| 2026-05-05 10:41 | 3.34896 | 96.14409 | 38783 ft | 465 kts | 85° |
| 2026-05-05 10:42 | 3.35440 | 96.23079 | 38786 ft | 466 kts | 85° |
| 2026-05-05 10:43 | 3.35848 | 96.29570 | 38788 ft | 467 kts | 85° |
| 2026-05-05 10:43 | 3.36253 | 96.36077 | 38789 ft | 466 kts | 85° |
| 2026-05-05 10:44 | 3.36655 | 96.42558 | 38795 ft | 467 kts | 85° |
| 2026-05-05 10:44 | 3.37063 | 96.49050 | 38794 ft | 467 kts | 85° |
| 2026-05-05 10:45 | 3.37492 | 96.55576 | 38795 ft | 467 kts | 85° |
| 2026-05-05 10:45 | 3.37914 | 96.62043 | 38796 ft | 467 kts | 85° |
| 2026-05-05 10:46 | 3.38337 | 96.68602 | 38800 ft | 468 kts | 85° |
| 2026-05-05 10:46 | 3.38821 | 96.76195 | 38805 ft | 468 kts | 85° |
| 2026-05-05 10:47 | 3.39170 | 96.81654 | 38804 ft | 468 kts | 85° |
| 2026-05-05 10:47 | 3.39588 | 96.88184 | 38817 ft | 469 kts | 85° |
| 2026-05-05 10:48 | 3.40005 | 96.94714 | 38820 ft | 468 kts | 86° |
| 2026-05-05 10:48 | 3.40418 | 97.01199 | 38826 ft | 469 kts | 86° |
| 2026-05-05 10:49 | 3.40834 | 97.07736 | 38860 ft | 469 kts | 85° |
| 2026-05-05 10:49 | 3.41250 | 97.14288 | 38902 ft | 469 kts | 85° |
| 2026-05-05 10:50 | 3.41736 | 97.21937 | 38944 ft | 469 kts | 85° |
| 2026-05-05 10:50 | 3.42078 | 97.27347 | 38979 ft | 469 kts | 85° |
| 2026-05-05 10:51 | 3.42493 | 97.33897 | 39011 ft | 468 kts | 85° |
| 2026-05-05 10:51 | 3.42906 | 97.40439 | 39043 ft | 469 kts | 85° |
| 2026-05-05 10:52 | 3.43318 | 97.46999 | 39072 ft | 469 kts | 85° |
| 2026-05-05 10:52 | 3.43725 | 97.53503 | 39081 ft | 469 kts | 85° |
| 2026-05-05 10:53 | 3.44139 | 97.60094 | 39041 ft | 469 kts | 85° |
| 2026-05-05 10:53 | 3.44562 | 97.66643 | 38991 ft | 469 kts | 85° |
| 2026-05-05 10:54 | 3.44979 | 97.73181 | 38937 ft | 469 kts | 85° |
| 2026-05-05 10:54 | 3.45392 | 97.79723 | 38899 ft | 469 kts | 85° |
| 2026-05-05 10:55 | 3.45805 | 97.86281 | 38904 ft | 470 kts | 85° |
| 2026-05-05 10:55 | 3.46219 | 97.92853 | 38920 ft | 470 kts | 85° |
| 2026-05-05 10:56 | 3.46634 | 97.99468 | 38936 ft | 470 kts | 85° |
| 2026-05-05 10:56 | 3.47045 | 98.06007 | 38933 ft | 470 kts | 85° |
| 2026-05-05 10:57 | 3.47527 | 98.13696 | 38906 ft | 470 kts | 85° |
| 2026-05-05 10:57 | 3.47870 | 98.19178 | 38884 ft | 471 kts | 85° |
| 2026-05-05 10:58 | 3.48278 | 98.25718 | 38850 ft | 471 kts | 85° |
| 2026-05-05 10:58 | 3.48692 | 98.32365 | 38840 ft | 471 kts | 85° |
| 2026-05-05 10:59 | 3.49104 | 98.38985 | 38834 ft | 471 kts | 85° |
| 2026-05-05 10:59 | 3.49509 | 98.45544 | 38830 ft | 471 kts | 85° |
| 2026-05-05 11:00 | 3.49915 | 98.52139 | 38822 ft | 471 kts | 85° |
| 2026-05-05 11:00 | 3.50296 | 98.58781 | 38817 ft | 471 kts | 87° |
| 2026-05-05 11:01 | 3.50179 | 98.65427 | 38810 ft | 473 kts | 92° |
| 2026-05-05 11:01 | 3.49781 | 98.72015 | 38807 ft | 473 kts | 92° |
| 2026-05-05 11:02 | 3.49372 | 98.78613 | 38808 ft | 473 kts | 92° |
| 2026-05-05 11:02 | 3.48963 | 98.85231 | 38804 ft | 473 kts | 92° |
| 2026-05-05 11:03 | 3.48558 | 98.91801 | 38802 ft | 472 kts | 92° |
| 2026-05-05 11:03 | 3.48082 | 98.99544 | 38801 ft | 474 kts | 92° |
| 2026-05-05 11:04 | 3.47740 | 99.05053 | 38801 ft | 474 kts | 92° |
| 2026-05-05 11:04 | 3.47331 | 99.11663 | 38795 ft | 474 kts | 92° |
| 2026-05-05 11:05 | 3.46920 | 99.18288 | 38793 ft | 474 kts | 92° |
| 2026-05-05 11:05 | 3.46443 | 99.26005 | 38796 ft | 473 kts | 92° |
| 2026-05-05 11:06 | 3.46037 | 99.32563 | 38796 ft | 473 kts | 93° |
| 2026-05-05 11:06 | 3.45628 | 99.39153 | 38794 ft | 473 kts | 93° |
| 2026-05-05 11:07 | 3.45287 | 99.44631 | 38795 ft | 473 kts | 93° |
| 2026-05-05 11:07 | 3.44806 | 99.52336 | 38794 ft | 473 kts | 92° |
| 2026-05-05 11:08 | 3.44397 | 99.58903 | 38789 ft | 474 kts | 92° |
| 2026-05-05 11:08 | 3.44053 | 99.64415 | 38792 ft | 473 kts | 92° |
| 2026-05-05 11:09 | 3.43644 | 99.70982 | 38787 ft | 473 kts | 93° |
| 2026-05-05 11:09 | 3.43165 | 99.78678 | 38778 ft | 473 kts | 93° |
| 2026-05-05 11:10 | 3.42821 | 99.84148 | 38776 ft | 473 kts | 93° |
| 2026-05-05 11:10 | 3.42406 | 99.90738 | 38772 ft | 473 kts | 93° |
| 2026-05-05 11:11 | 3.41922 | 99.98439 | 38774 ft | 473 kts | 92° |
| 2026-05-05 11:11 | 3.41504 | 100.05061 | 38779 ft | 473 kts | 92° |
| 2026-05-05 11:12 | 3.41157 | 100.10517 | 38778 ft | 473 kts | 93° |
| 2026-05-05 11:12 | 3.40672 | 100.18184 | 38417 ft | 466 kts | 93° |
| 2026-05-05 11:12 | 3.40346 | 100.21390 | 37709 ft | 465 kts | 97° |
| 2026-05-05 11:13 | 3.39971 | 100.23534 | 37224 ft | 465 kts | 101° |
| 2026-05-05 11:13 | 3.38863 | 100.27679 | 36265 ft | 465 kts | 107° |
| 2026-05-05 11:13 | 3.38126 | 100.29712 | 35744 ft | 466 kts | 111° |
| 2026-05-05 11:13 | 3.36805 | 100.32665 | 34923 ft | 469 kts | 116° |
| 2026-05-05 11:14 | 3.35201 | 100.35541 | 34068 ft | 471 kts | 121° |
| 2026-05-05 11:14 | 3.32717 | 100.39154 | 32884 ft | 475 kts | 125° |
| 2026-05-05 11:14 | 3.30766 | 100.41813 | 32033 ft | 477 kts | 126° |
| 2026-05-05 11:14 | 3.28783 | 100.44489 | 31218 ft | 479 kts | 126° |
| 2026-05-05 11:15 | 3.27458 | 100.46281 | 30688 ft | 480 kts | 126° |
| 2026-05-05 11:15 | 3.25471 | 100.48973 | 29873 ft | 482 kts | 126° |
| 2026-05-05 11:15 | 3.23470 | 100.51693 | 29024 ft | 483 kts | 126° |
| 2026-05-05 11:15 | 3.21470 | 100.54416 | 28171 ft | 484 kts | 126° |
| 2026-05-05 11:16 | 3.18809 | 100.58044 | 27205 ft | 481 kts | 126° |
| 2026-05-05 11:16 | 3.16844 | 100.60722 | 26683 ft | 474 kts | 126° |
| 2026-05-05 11:16 | 3.14903 | 100.63368 | 26101 ft | 469 kts | 126° |
| 2026-05-05 11:16 | 3.13614 | 100.65126 | 25703 ft | 466 kts | 126° |
| 2026-05-05 11:17 | 3.11700 | 100.67747 | 25103 ft | 461 kts | 125° |
| 2026-05-05 11:17 | 3.09816 | 100.70323 | 24483 ft | 458 kts | 126° |
| 2026-05-05 11:17 | 3.07304 | 100.73717 | 23694 ft | 452 kts | 126° |
| 2026-05-05 11:17 | 3.05412 | 100.76260 | 23093 ft | 447 kts | 126° |
| 2026-05-05 11:18 | 3.03570 | 100.78732 | 22516 ft | 443 kts | 126° |
| 2026-05-05 11:18 | 3.02325 | 100.80405 | 22140 ft | 440 kts | 126° |
| 2026-05-05 11:18 | 2.99905 | 100.83658 | 21381 ft | 435 kts | 126° |
| 2026-05-05 11:18 | 2.98692 | 100.85289 | 20999 ft | 432 kts | 125° |
| 2026-05-05 11:19 | 2.96967 | 100.87734 | 20422 ft | 428 kts | 122° |
| 2026-05-05 11:19 | 2.94960 | 100.91126 | 19644 ft | 422 kts | 117° |
| 2026-05-05 11:19 | 2.93670 | 100.93765 | 19065 ft | 418 kts | 113° |
| 2026-05-05 11:19 | 2.92499 | 100.96446 | 18480 ft | 415 kts | 112° |
| 2026-05-05 11:20 | 2.91746 | 100.98193 | 18093 ft | 413 kts | 112° |
| 2026-05-05 11:20 | 2.90600 | 101.00856 | 17522 ft | 409 kts | 112° |
| 2026-05-05 11:20 | 2.89472 | 101.03470 | 16959 ft | 405 kts | 112° |
| 2026-05-05 11:20 | 2.88349 | 101.06043 | 16530 ft | 398 kts | 112° |
| 2026-05-05 11:21 | 2.86901 | 101.09360 | 16270 ft | 381 kts | 112° |
| 2026-05-05 11:21 | 2.86208 | 101.10955 | 16143 ft | 373 kts | 112° |
| 2026-05-05 11:21 | 2.85187 | 101.13309 | 15960 ft | 361 kts | 112° |
| 2026-05-05 11:21 | 2.84199 | 101.15591 | 15768 ft | 351 kts | 112° |
| 2026-05-05 11:22 | 2.83239 | 101.17811 | 15601 ft | 340 kts | 112° |
| 2026-05-05 11:22 | 2.81997 | 101.20681 | 15320 ft | 329 kts | 112° |
| 2026-05-05 11:22 | 2.81396 | 101.22073 | 15214 ft | 322 kts | 112° |
| 2026-05-05 11:22 | 2.80398 | 101.24049 | 15045 ft | 314 kts | 121° |
| 2026-05-05 11:23 | 2.79095 | 101.25784 | 14899 ft | 306 kts | 130° |
| 2026-05-05 11:23 | 2.77657 | 101.27334 | 14749 ft | 298 kts | 131° |
| 2026-05-05 11:23 | 2.76238 | 101.28815 | 14593 ft | 289 kts | 131° |
| 2026-05-05 11:23 | 2.74838 | 101.30263 | 14350 ft | 285 kts | 135° |
| 2026-05-05 11:24 | 2.73140 | 101.31292 | 13991 ft | 288 kts | 161° |
| 2026-05-05 11:24 | 2.70478 | 101.31336 | 13617 ft | 289 kts | 192° |
| 2026-05-05 11:24 | 2.69181 | 101.30977 | 13400 ft | 289 kts | 194° |
| 2026-05-05 11:24 | 2.67234 | 101.30398 | 13049 ft | 289 kts | 194° |
| 2026-05-05 11:25 | 2.65246 | 101.30000 | 12706 ft | 286 kts | 184° |
| 2026-05-05 11:25 | 2.63260 | 101.29946 | 12384 ft | 283 kts | 176° |
| 2026-05-05 11:25 | 2.61278 | 101.30063 | 12063 ft | 282 kts | 174° |
| 2026-05-05 11:25 | 2.59287 | 101.30209 | 11723 ft | 281 kts | 173° |
| 2026-05-05 11:26 | 2.57351 | 101.30505 | 11386 ft | 279 kts | 164° |
| 2026-05-05 11:26 | 2.55504 | 101.31107 | 11056 ft | 276 kts | 156° |
| 2026-05-05 11:26 | 2.53732 | 101.31875 | 10726 ft | 275 kts | 154° |
| 2026-05-05 11:26 | 2.51966 | 101.32671 | 10399 ft | 274 kts | 154° |
| 2026-05-05 11:27 | 2.49726 | 101.33890 | 9949 ft | 272 kts | 143° |
| 2026-05-05 11:27 | 2.48274 | 101.35075 | 9625 ft | 270 kts | 135° |
| 2026-05-05 11:27 | 2.47362 | 101.35939 | 9409 ft | 269 kts | 134° |
| 2026-05-05 11:27 | 2.46002 | 101.37261 | 9088 ft | 268 kts | 134° |
| 2026-05-05 11:28 | 2.44686 | 101.38588 | 8783 ft | 267 kts | 129° |
| 2026-05-05 11:28 | 2.43585 | 101.40075 | 8467 ft | 264 kts | 119° |
| 2026-05-05 11:28 | 2.42458 | 101.42232 | 8039 ft | 262 kts | 114° |
| 2026-05-05 11:28 | 2.41924 | 101.43340 | 7829 ft | 261 kts | 114° |
| 2026-05-05 11:29 | 2.41137 | 101.44977 | 7530 ft | 260 kts | 114° |
| 2026-05-05 11:29 | 2.40496 | 101.46677 | 7219 ft | 258 kts | 103° |
| 2026-05-05 11:29 | 2.40093 | 101.49007 | 6816 ft | 255 kts | 95° |
| 2026-05-05 11:29 | 2.39973 | 101.50790 | 6498 ft | 253 kts | 83° |
| 2026-05-05 11:30 | 2.40522 | 101.52443 | 6191 ft | 249 kts | 56° |
| 2026-05-05 11:30 | 2.41716 | 101.53657 | 5907 ft | 246 kts | 32° |
| 2026-05-05 11:30 | 2.43314 | 101.54260 | 5574 ft | 247 kts | 7° |
| 2026-05-05 11:30 | 2.44484 | 101.54273 | 5355 ft | 248 kts | 357° |
| 2026-05-05 11:31 | 2.46784 | 101.54094 | 4962 ft | 247 kts | 356° |
| 2026-05-05 11:31 | 2.48509 | 101.53959 | 4669 ft | 246 kts | 356° |
| 2026-05-05 11:31 | 2.50224 | 101.53832 | 4374 ft | 246 kts | 356° |
| 2026-05-05 11:31 | 2.51944 | 101.53709 | 4110 ft | 244 kts | 357° |
| 2026-05-05 11:32 | 2.53623 | 101.53589 | 4030 ft | 233 kts | 357° |
| 2026-05-05 11:32 | 2.55225 | 101.53475 | 4017 ft | 220 kts | 357° |
| 2026-05-05 11:32 | 2.56719 | 101.53371 | 4016 ft | 212 kts | 356° |
| 2026-05-05 11:32 | 2.58220 | 101.53342 | 4014 ft | 211 kts | 11° |
| 2026-05-05 11:33 | 2.59608 | 101.53874 | 4024 ft | 210 kts | 36° |
| 2026-05-05 11:33 | 2.60632 | 101.54922 | 4051 ft | 209 kts | 58° |
| 2026-05-05 11:33 | 2.61017 | 101.55766 | 4062 ft | 211 kts | 71° |
| 2026-05-05 11:33 | 2.61151 | 101.57235 | 4040 ft | 213 kts | 95° |
| 2026-05-05 11:34 | 2.60543 | 101.59145 | 4045 ft | 215 kts | 110° |
| 2026-05-05 11:34 | 2.59977 | 101.60525 | 4040 ft | 215 kts | 110° |
| 2026-05-05 11:34 | 2.59403 | 101.61912 | 4039 ft | 215 kts | 110° |
| 2026-05-05 11:34 | 2.58828 | 101.63323 | 4037 ft | 215 kts | 110° |
| 2026-05-05 11:35 | 2.58268 | 101.64715 | 4038 ft | 215 kts | 110° |
| 2026-05-05 11:35 | 2.57706 | 101.66121 | 4037 ft | 215 kts | 110° |
| 2026-05-05 11:35 | 2.57154 | 101.67516 | 4038 ft | 215 kts | 110° |
| 2026-05-05 11:35 | 2.56598 | 101.68925 | 4036 ft | 215 kts | 110° |
| 2026-05-05 11:36 | 2.56033 | 101.70352 | 4036 ft | 215 kts | 110° |
| 2026-05-05 11:36 | 2.55479 | 101.71754 | 4035 ft | 215 kts | 110° |
| 2026-05-05 11:36 | 2.54936 | 101.73122 | 4020 ft | 204 kts | 110° |
| 2026-05-05 11:36 | 2.54416 | 101.74429 | 4025 ft | 199 kts | 110° |
| 2026-05-05 11:37 | 2.54073 | 101.75292 | 4028 ft | 199 kts | 109° |
| 2026-05-05 11:37 | 2.53553 | 101.76608 | 4027 ft | 199 kts | 109° |
| 2026-05-05 11:37 | 2.52868 | 101.78340 | 4026 ft | 199 kts | 110° |
| 2026-05-05 11:37 | 2.52354 | 101.79636 | 4030 ft | 199 kts | 109° |
| 2026-05-05 11:38 | 2.51841 | 101.80931 | 4033 ft | 199 kts | 109° |
| 2026-05-05 11:38 | 2.51325 | 101.82232 | 4037 ft | 199 kts | 110° |
| 2026-05-05 11:38 | 2.50987 | 101.83086 | 4035 ft | 199 kts | 110° |
| 2026-05-05 11:38 | 2.50471 | 101.84386 | 4034 ft | 199 kts | 110° |
| 2026-05-05 11:39 | 2.49788 | 101.86106 | 4037 ft | 198 kts | 109° |
| 2026-05-05 11:39 | 2.49268 | 101.87418 | 4039 ft | 199 kts | 109° |
| 2026-05-05 11:39 | 2.48752 | 101.88719 | 4039 ft | 199 kts | 109° |
| 2026-05-05 11:39 | 2.48537 | 101.90055 | 4019 ft | 194 kts | 78° |
| 2026-05-05 11:40 | 2.49216 | 101.91193 | 4026 ft | 193 kts | 37° |
| 2026-05-05 11:40 | 2.50040 | 101.91569 | 4031 ft | 193 kts | 11° |
| 2026-05-05 11:40 | 2.51365 | 101.91338 | 4033 ft | 197 kts | 330° |
| 2026-05-05 11:40 | 2.52370 | 101.89821 | 4040 ft | 203 kts | 284° |
| 2026-05-05 11:41 | 2.52739 | 101.88451 | 4040 ft | 203 kts | 294° |
| 2026-05-05 11:41 | 2.53457 | 101.87219 | 4034 ft | 201 kts | 309° |
| 2026-05-05 11:41 | 2.54076 | 101.86507 | 4034 ft | 200 kts | 315° |
| 2026-05-05 11:41 | 2.55463 | 101.85255 | 4031 ft | 200 kts | 324° |
| 2026-05-05 11:42 | 2.56562 | 101.84453 | 4014 ft | 186 kts | 327° |
| 2026-05-05 11:42 | 2.57273 | 101.83965 | 4002 ft | 175 kts | 327° |
| 2026-05-05 11:42 | 2.58610 | 101.83069 | 4017 ft | 172 kts | 328° |
| 2026-05-05 11:42 | 2.59628 | 101.82391 | 4023 ft | 171 kts | 328° |
| 2026-05-05 11:43 | 2.60604 | 101.81739 | 3854 ft | 168 kts | 328° |
| 2026-05-05 11:43 | 2.61594 | 101.81078 | 3526 ft | 170 kts | 328° |
| 2026-05-05 11:43 | 2.62590 | 101.80414 | 3227 ft | 169 kts | 327° |
| 2026-05-05 11:43 | 2.63241 | 101.79977 | 3082 ft | 167 kts | 327° |
| 2026-05-05 11:44 | 2.64555 | 101.79097 | 3041 ft | 169 kts | 327° |
| 2026-05-05 11:44 | 2.65548 | 101.78431 | 3039 ft | 169 kts | 327° |
| 2026-05-05 11:44 | 2.66515 | 101.77783 | 3029 ft | 161 kts | 327° |
| 2026-05-05 11:44 | 2.67437 | 101.77161 | 3024 ft | 154 kts | 328° |
| 2026-05-05 11:45 | 2.68020 | 101.76772 | 2945 ft | 149 kts | 327° |
| 2026-05-05 11:45 | 2.69196 | 101.75987 | 2499 ft | 152 kts | 327° |
| 2026-05-05 11:45 | 2.70071 | 101.75400 | 2187 ft | 151 kts | 327° |
| 2026-05-05 11:45 | 2.70952 | 101.74808 | 2029 ft | 150 kts | 328° |
| 2026-05-05 11:46 | 2.71846 | 101.74185 | 1552 ft | 163 kts | 325° |
| 2026-05-05 11:46 | 2.72823 | 101.73498 | 836 ft | 182 kts | 327° |
| 2026-05-05 11:46 | 2.73927 | 101.72817 | 351 ft | 184 kts | 326° |
| 2026-05-05 11:46 | 2.74962 | 101.72123 | 124 ft | 173 kts | 326° |
| 2026-05-05 11:47 | 2.75614 | 101.71691 | 75 ft | 147 kts | 324° |
| 2026-05-05 11:47 | 2.76107 | 101.71351 | 72 ft | 26 kts | 326° |
| 2026-05-05 11:47 | 2.76269 | 101.71240 | 71 ft | 28 kts | 326° |
| 2026-05-05 11:47 | 2.76444 | 101.71121 | 70 ft | 31 kts | 320° |
| 2026-05-05 11:48 | 2.76573 | 101.70888 | 71 ft | 10 kts | 246° |
| 2026-05-05 11:48 | 2.76480 | 101.70879 | 71 ft | 12 kts | 154° |
| 2026-05-05 11:48 | 2.76392 | 101.70933 | 71 ft | 16 kts | 147° |
| 2026-05-05 11:49 | 2.76291 | 101.70998 | 72 ft | 17 kts | 154° |
| 2026-05-05 11:49 | 2.76169 | 101.71034 | 74 ft | 18 kts | 169° |
| 2026-05-05 11:49 | 2.76040 | 101.71068 | 77 ft | 18 kts | 155° |
| 2026-05-05 11:49 | 2.75938 | 101.71127 | 78 ft | 13 kts | 146° |
| 2026-05-05 11:50 | 2.75878 | 101.71140 | 78 ft | 13 kts | 189° |
| 2026-05-05 11:50 | 2.75777 | 101.71059 | 80 ft | 12 kts | 199° |
| 2026-05-05 11:50 | 2.75698 | 101.71076 | 82 ft | 12 kts | 152° |
| 2026-05-05 11:50 | 2.75613 | 101.71130 | 81 ft | 16 kts | 146° |
| 2026-05-05 11:51 | 2.75508 | 101.71201 | 80 ft | 19 kts | 147° |
| 2026-05-05 11:51 | 2.75387 | 101.71282 | 81 ft | 21 kts | 145° |
| 2026-05-05 11:51 | 2.75298 | 101.71297 | 81 ft | 11 kts | 212° |
| 2026-05-05 11:51 | 2.75258 | 101.71273 | 82 ft | 11 kts | 199° |
| 2026-05-05 11:52 | 2.75158 | 101.71272 | 82 ft | 9 kts | 214° |
| 2026-05-05 11:52 | 2.75131 | 101.71245 | 83 ft | 0 kts | 233° |